Dauntless Aviation
Airports Europe France

Saint Jean d'Angely


Airport Info
Suggest Updated Information for this Airport


Latitude / Longitude: 45°57'59"N / 0°31'31"W
  45°57.984'N / 0°31.518'W
  45.9664 / -0.5253

Runway Information

Runway 10 /28

Dimensions: 2789 x 164 ft.
Surface: U
Runway 10
Runway 28
Latitude: 45.966636 45.965728
Longitude: -0.528086 -0.518369
Elevation: 243 ft. 243 ft.
Runway true heading: 95.7 275.7

Instrument Procedures

IAPs (Instrument Approach Procedures)

  Visual Approch Chart
Satellite photo at:
Airport distance calculator
Weather Reports


20.0nm SE
LFBG 282300Z AUTO 00000KT 9000 NSC 09/06 Q1031
27.2nm W
LFBH 282300Z AUTO 03005KT CAVOK 08/07 Q1031 TEMPO 0800 FG VV///
34.5nm E
LFBU 282300Z AUTO 04007KT CAVOK 10/08 Q1030


20.0nm SE
TAF LFBG 281100Z 2812/2912 07006KT CAVOK TEMPO 2900/2908 0400 FG
27.2nm W
TAF LFBH 281700Z 2818/2918 06008KT CAVOK BECMG 2821/2823 4000 BR PROB30 2900/2908 0800 FG VV/// BECMG 2908/2910 CAVOK
34.5nm E
TAF LFBU 281700Z 2818/2918 04008KT CAVOK BECMG 2822/2824 3000 BR PROB40 TEMPO 2900/2908 0500 FG VV/// BECMG 2908/2910 CAVOK


Dauntless Aviation

© 2007-2016 Dauntless Aviation, all rights reserved
Information provided via PilotNav comes from a variety of official and unofficial data sources. As errors are possible, do not use PilotNav for primary flight planning purposes. Verify any information that you receive via PilotNav with current and canonical charts and other official documents. The material in this database is subject to database copyrights held by Dauntless Aviation and may not be copied without the express permission of Dauntless Aviation - licenses for use of part of all of this data are available for purchase; enquire via the Dauntless Aviation helpdesk. A number of mechanisms and markers exist in the database to protect against and identify infringement / copyright. Automated queries against this website are stictly prohibited, and all activity is logged and analyzed.